DLH1PP EPKK-EDDM
Flight info
| Callsign | DLH1PP |
|---|---|
| Flight time | 1h 3m |
| Altitude | 30000 |
| Route | ADADO DCT UTEVO DCT VOZ DCT BAVRI T110 BINGU T108 LANDU LANDU2B |
| Aircraft | A319/M-SDE3FGHIRWY/LB1 |
Departure
| Time | 2026-05-07 18:43 |
|---|---|
| Airport | Kraków John Paul II International Airport (EPKK) |
Arrival
| Time | 2026-05-07 19:47 |
|---|---|
| Airport | Munich Airport (EDDM) |
| Time | Latitude | Longitude | Altitude | Speed | Heading |
|---|---|---|---|---|---|
| 2026-05-07 18:16 | 50.07307 | 19.80007 | 800 ft | 0 kts | 168° |
| 2026-05-07 18:34 | 50.07323 | 19.80001 | 800 ft | 4 kts | 168° |
| 2026-05-07 18:34 | 50.07349 | 19.79993 | 800 ft | 4 kts | 168° |
| 2026-05-07 18:34 | 50.07371 | 19.79986 | 800 ft | 4 kts | 158° |
| 2026-05-07 18:35 | 50.07387 | 19.79964 | 800 ft | 4 kts | 96° |
| 2026-05-07 18:35 | 50.07385 | 19.79929 | 800 ft | 1 kts | 78° |
| 2026-05-07 18:35 | 50.07385 | 19.79928 | 800 ft | 0 kts | 78° |
| 2026-05-07 18:38 | 50.07388 | 19.79948 | 800 ft | 3 kts | 78° |
| 2026-05-07 18:38 | 50.07392 | 19.79982 | 800 ft | 0 kts | 78° |
| 2026-05-07 18:39 | 50.07397 | 19.80013 | 800 ft | 7 kts | 77° |
| 2026-05-07 18:39 | 50.07406 | 19.80079 | 800 ft | 6 kts | 77° |
| 2026-05-07 18:39 | 50.07415 | 19.80142 | 800 ft | 5 kts | 78° |
| 2026-05-07 18:40 | 50.07423 | 19.80198 | 800 ft | 8 kts | 78° |
| 2026-05-07 18:40 | 50.07439 | 19.80316 | 800 ft | 12 kts | 76° |
| 2026-05-07 18:40 | 50.07501 | 19.80393 | 800 ft | 13 kts | 18° |
| 2026-05-07 18:40 | 50.07591 | 19.80422 | 800 ft | 13 kts | 358° |
| 2026-05-07 18:41 | 50.07681 | 19.80391 | 800 ft | 13 kts | 347° |
| 2026-05-07 18:41 | 50.07772 | 19.80361 | 800 ft | 13 kts | 348° |
| 2026-05-07 18:41 | 50.07855 | 19.80333 | 800 ft | 12 kts | 348° |
| 2026-05-07 18:41 | 50.07937 | 19.80306 | 800 ft | 12 kts | 347° |
| 2026-05-07 18:42 | 50.08014 | 19.80259 | 800 ft | 12 kts | 307° |
| 2026-05-07 18:42 | 50.08015 | 19.80211 | 800 ft | 0 kts | 255° |
| 2026-05-07 18:43 | 50.08011 | 19.80191 | 800 ft | 9 kts | 255° |
| 2026-05-07 18:43 | 50.07943 | 19.79698 | 801 ft | 88 kts | 257° |
| 2026-05-07 18:43 | 50.07763 | 19.78405 | 846 ft | 147 kts | 257° |
| 2026-05-07 18:43 | 50.07568 | 19.76886 | 1579 ft | 139 kts | 257° |
| 2026-05-07 18:44 | 50.07373 | 19.75405 | 2178 ft | 147 kts | 258° |
| 2026-05-07 18:44 | 50.07136 | 19.73738 | 2619 ft | 169 kts | 258° |
| 2026-05-07 18:44 | 50.06863 | 19.71834 | 3053 ft | 192 kts | 258° |
| 2026-05-07 18:44 | 50.06557 | 19.69696 | 3521 ft | 212 kts | 258° |
| 2026-05-07 18:45 | 50.06527 | 19.67275 | 3965 ft | 238 kts | 277° |
| 2026-05-07 18:45 | 50.06760 | 19.64626 | 4765 ft | 253 kts | 277° |
| 2026-05-07 18:45 | 50.06989 | 19.61869 | 5657 ft | 260 kts | 277° |
| 2026-05-07 18:45 | 50.07218 | 19.59065 | 6728 ft | 262 kts | 276° |
| 2026-05-07 18:46 | 50.07450 | 19.56233 | 7759 ft | 266 kts | 276° |
| 2026-05-07 18:46 | 50.07685 | 19.53345 | 8808 ft | 270 kts | 276° |
| 2026-05-07 18:46 | 50.07920 | 19.50458 | 9818 ft | 275 kts | 275° |
| 2026-05-07 18:46 | 50.08166 | 19.47441 | 10486 ft | 292 kts | 275° |
| 2026-05-07 18:47 | 50.08430 | 19.44203 | 11035 ft | 309 kts | 275° |
| 2026-05-07 18:47 | 50.08707 | 19.40802 | 11886 ft | 316 kts | 275° |
| 2026-05-07 18:47 | 50.08980 | 19.37422 | 12756 ft | 321 kts | 275° |
| 2026-05-07 18:47 | 50.09260 | 19.33948 | 13631 ft | 326 kts | 274° |
| 2026-05-07 18:48 | 50.09544 | 19.30415 | 14423 ft | 331 kts | 274° |
| 2026-05-07 18:48 | 50.09831 | 19.26839 | 15219 ft | 334 kts | 274° |
| 2026-05-07 18:48 | 50.10119 | 19.23226 | 16004 ft | 338 kts | 274° |
| 2026-05-07 18:48 | 50.10407 | 19.19574 | 16802 ft | 341 kts | 273° |
| 2026-05-07 18:49 | 50.10699 | 19.15890 | 17582 ft | 345 kts | 273° |
| 2026-05-07 18:49 | 50.10994 | 19.12161 | 18348 ft | 349 kts | 273° |
| 2026-05-07 18:49 | 50.11289 | 19.08390 | 19019 ft | 353 kts | 273° |
| 2026-05-07 18:49 | 50.11586 | 19.04570 | 19662 ft | 357 kts | 273° |
| 2026-05-07 18:50 | 50.11884 | 19.00706 | 20321 ft | 361 kts | 272° |
| 2026-05-07 18:50 | 50.12185 | 18.96799 | 20985 ft | 365 kts | 272° |
| 2026-05-07 18:50 | 50.12489 | 18.92859 | 21645 ft | 369 kts | 271° |
| 2026-05-07 18:50 | 50.12796 | 18.88868 | 22307 ft | 372 kts | 271° |
| 2026-05-07 18:51 | 50.13105 | 18.84839 | 22960 ft | 376 kts | 271° |
| 2026-05-07 18:51 | 50.13414 | 18.80769 | 23592 ft | 380 kts | 270° |
| 2026-05-07 18:51 | 50.13723 | 18.76657 | 24148 ft | 384 kts | 270° |
| 2026-05-07 18:51 | 50.14032 | 18.72515 | 24685 ft | 387 kts | 270° |
| 2026-05-07 18:52 | 50.14343 | 18.68328 | 25210 ft | 391 kts | 270° |
| 2026-05-07 18:52 | 50.14655 | 18.64106 | 25726 ft | 394 kts | 270° |
| 2026-05-07 18:52 | 50.14973 | 18.59842 | 26295 ft | 397 kts | 270° |
| 2026-05-07 18:52 | 50.15299 | 18.55554 | 26833 ft | 400 kts | 270° |
| 2026-05-07 18:53 | 50.15624 | 18.51229 | 27329 ft | 403 kts | 270° |
| 2026-05-07 18:53 | 50.15941 | 18.46932 | 27796 ft | 406 kts | 269° |
| 2026-05-07 18:53 | 50.16261 | 18.42547 | 27952 ft | 407 kts | 269° |
| 2026-05-07 18:53 | 50.16578 | 18.38166 | 27976 ft | 407 kts | 269° |
| 2026-05-07 18:54 | 50.16894 | 18.33780 | 27972 ft | 407 kts | 269° |
| 2026-05-07 18:54 | 50.17213 | 18.29394 | 27972 ft | 407 kts | 269° |
| 2026-05-07 18:54 | 50.17528 | 18.25005 | 27978 ft | 407 kts | 269° |
| 2026-05-07 18:54 | 50.17837 | 18.20628 | 27978 ft | 407 kts | 269° |
| 2026-05-07 18:55 | 50.18143 | 18.16242 | 27982 ft | 406 kts | 269° |
| 2026-05-07 18:55 | 50.18448 | 18.11862 | 27980 ft | 407 kts | 269° |
| 2026-05-07 18:55 | 50.18751 | 18.07476 | 27987 ft | 407 kts | 269° |
| 2026-05-07 18:55 | 50.19048 | 18.03060 | 28391 ft | 410 kts | 269° |
| 2026-05-07 18:56 | 50.19342 | 17.98617 | 28916 ft | 413 kts | 269° |
| 2026-05-07 18:56 | 50.19637 | 17.94141 | 29400 ft | 416 kts | 269° |
| 2026-05-07 18:56 | 50.19938 | 17.89624 | 29858 ft | 420 kts | 269° |
| 2026-05-07 18:56 | 50.20243 | 17.85092 | 29978 ft | 416 kts | 269° |
| 2026-05-07 18:57 | 50.20548 | 17.80708 | 29989 ft | 398 kts | 269° |
| 2026-05-07 18:57 | 50.20843 | 17.76498 | 29990 ft | 384 kts | 268° |
| 2026-05-07 18:57 | 50.20970 | 17.72405 | 29992 ft | 373 kts | 263° |
| 2026-05-07 18:58 | 50.20975 | 17.64355 | 29992 ft | 369 kts | 263° |
| 2026-05-07 18:58 | 50.20976 | 17.56340 | 29994 ft | 369 kts | 263° |
| 2026-05-07 18:59 | 50.20323 | 17.48570 | 30000 ft | 356 kts | 246° |
| 2026-05-07 18:59 | 50.18595 | 17.41386 | 29994 ft | 353 kts | 243° |
| 2026-05-07 19:00 | 50.17144 | 17.35439 | 29991 ft | 353 kts | 243° |
| 2026-05-07 19:00 | 50.15102 | 17.27075 | 29992 ft | 353 kts | 243° |
| 2026-05-07 19:01 | 50.13355 | 17.19919 | 29988 ft | 353 kts | 243° |
| 2026-05-07 19:01 | 50.11601 | 17.12772 | 30036 ft | 352 kts | 243° |
| 2026-05-07 19:02 | 50.09853 | 17.05676 | 30031 ft | 350 kts | 243° |
| 2026-05-07 19:02 | 50.08099 | 16.98615 | 30021 ft | 349 kts | 243° |
| 2026-05-07 19:03 | 50.06352 | 16.91588 | 30014 ft | 347 kts | 244° |
| 2026-05-07 19:03 | 50.04612 | 16.84608 | 30012 ft | 346 kts | 243° |
| 2026-05-07 19:04 | 50.02881 | 16.77688 | 30014 ft | 345 kts | 243° |
| 2026-05-07 19:04 | 50.01143 | 16.70741 | 30001 ft | 344 kts | 243° |
| 2026-05-07 19:05 | 49.99405 | 16.63808 | 30001 ft | 344 kts | 243° |
| 2026-05-07 19:05 | 49.97644 | 16.56834 | 30008 ft | 346 kts | 243° |
| 2026-05-07 19:06 | 49.95891 | 16.49925 | 29981 ft | 347 kts | 243° |
| 2026-05-07 19:06 | 49.93218 | 16.39425 | 29976 ft | 349 kts | 243° |
| 2026-05-07 19:07 | 49.91434 | 16.32422 | 29976 ft | 349 kts | 243° |
| 2026-05-07 19:07 | 49.89646 | 16.25414 | 29980 ft | 349 kts | 243° |
| 2026-05-07 19:08 | 49.87848 | 16.18413 | 29984 ft | 349 kts | 243° |
| 2026-05-07 19:08 | 49.86050 | 16.11408 | 29986 ft | 350 kts | 243° |
| 2026-05-07 19:09 | 49.84244 | 16.04415 | 30033 ft | 350 kts | 243° |
| 2026-05-07 19:09 | 49.82433 | 15.97425 | 30019 ft | 350 kts | 243° |
| 2026-05-07 19:10 | 49.80927 | 15.91626 | 30010 ft | 349 kts | 243° |
| 2026-05-07 19:10 | 49.79114 | 15.84648 | 30002 ft | 349 kts | 243° |
| 2026-05-07 19:11 | 49.77296 | 15.77686 | 30000 ft | 348 kts | 244° |
| 2026-05-07 19:11 | 49.75475 | 15.70749 | 30001 ft | 348 kts | 244° |
| 2026-05-07 19:12 | 49.73658 | 15.63831 | 29999 ft | 347 kts | 244° |
| 2026-05-07 19:12 | 49.71836 | 15.56926 | 30000 ft | 347 kts | 244° |
| 2026-05-07 19:13 | 49.70012 | 15.50030 | 30033 ft | 347 kts | 244° |
| 2026-05-07 19:13 | 49.68178 | 15.43111 | 30002 ft | 349 kts | 245° |
| 2026-05-07 19:14 | 49.66332 | 15.36177 | 29999 ft | 350 kts | 245° |
| 2026-05-07 19:14 | 49.64477 | 15.29224 | 29994 ft | 350 kts | 245° |
| 2026-05-07 19:15 | 49.62618 | 15.22269 | 29992 ft | 351 kts | 245° |
| 2026-05-07 19:15 | 49.60753 | 15.15324 | 29996 ft | 350 kts | 245° |
| 2026-05-07 19:16 | 49.58888 | 15.08397 | 30008 ft | 350 kts | 245° |
| 2026-05-07 19:16 | 49.57020 | 15.01472 | 30004 ft | 350 kts | 245° |
| 2026-05-07 19:17 | 49.55142 | 14.94558 | 30030 ft | 350 kts | 246° |
| 2026-05-07 19:17 | 49.53254 | 14.87640 | 30013 ft | 351 kts | 244° |
| 2026-05-07 19:18 | 49.50868 | 14.81069 | 30011 ft | 352 kts | 240° |
| 2026-05-07 19:18 | 49.48431 | 14.74534 | 30006 ft | 353 kts | 240° |
| 2026-05-07 19:19 | 49.46005 | 14.68033 | 29989 ft | 353 kts | 240° |
| 2026-05-07 19:19 | 49.43565 | 14.61490 | 30005 ft | 353 kts | 240° |
| 2026-05-07 19:20 | 49.41125 | 14.54937 | 30009 ft | 354 kts | 240° |
| 2026-05-07 19:20 | 49.38671 | 14.48392 | 30017 ft | 354 kts | 240° |
| 2026-05-07 19:21 | 49.36212 | 14.41850 | 30013 ft | 354 kts | 240° |
| 2026-05-07 19:21 | 49.33748 | 14.35319 | 30032 ft | 354 kts | 241° |
| 2026-05-07 19:22 | 49.31283 | 14.28782 | 30030 ft | 354 kts | 242° |
| 2026-05-07 19:22 | 49.28810 | 14.22242 | 30005 ft | 355 kts | 242° |
| 2026-05-07 19:23 | 49.26321 | 14.15686 | 30009 ft | 356 kts | 242° |
| 2026-05-07 19:23 | 49.23817 | 14.09091 | 29813 ft | 363 kts | 242° |
| 2026-05-07 19:24 | 49.22549 | 14.05757 | 29516 ft | 363 kts | 242° |
| 2026-05-07 19:24 | 49.21274 | 14.02421 | 29236 ft | 363 kts | 242° |
| 2026-05-07 19:24 | 49.20001 | 13.99100 | 28962 ft | 361 kts | 242° |
| 2026-05-07 19:24 | 49.18733 | 13.95792 | 28673 ft | 360 kts | 242° |
| 2026-05-07 19:25 | 49.17470 | 13.92499 | 28393 ft | 358 kts | 242° |
| 2026-05-07 19:25 | 49.16230 | 13.89206 | 28118 ft | 356 kts | 243° |
| 2026-05-07 19:25 | 49.15071 | 13.85925 | 27848 ft | 355 kts | 244° |
| 2026-05-07 19:25 | 49.13928 | 13.82549 | 27574 ft | 353 kts | 245° |
| 2026-05-07 19:26 | 49.12819 | 13.79210 | 27297 ft | 352 kts | 246° |
| 2026-05-07 19:26 | 49.11714 | 13.75877 | 27035 ft | 351 kts | 245° |
| 2026-05-07 19:26 | 49.10603 | 13.72559 | 26768 ft | 350 kts | 245° |
| 2026-05-07 19:26 | 49.09485 | 13.69263 | 26511 ft | 349 kts | 245° |
| 2026-05-07 19:27 | 49.08367 | 13.65990 | 26252 ft | 348 kts | 245° |
| 2026-05-07 19:27 | 49.07246 | 13.62723 | 25994 ft | 347 kts | 245° |
| 2026-05-07 19:27 | 49.06124 | 13.59470 | 25749 ft | 346 kts | 245° |
| 2026-05-07 19:27 | 49.05009 | 13.56237 | 25495 ft | 345 kts | 245° |
| 2026-05-07 19:28 | 49.03897 | 13.53006 | 25248 ft | 344 kts | 245° |
| 2026-05-07 19:28 | 49.02788 | 13.49783 | 24999 ft | 343 kts | 245° |
| 2026-05-07 19:28 | 49.01684 | 13.46578 | 24754 ft | 342 kts | 245° |
| 2026-05-07 19:28 | 49.00582 | 13.43377 | 24514 ft | 341 kts | 245° |
| 2026-05-07 19:29 | 48.99483 | 13.40186 | 24274 ft | 340 kts | 245° |
| 2026-05-07 19:29 | 48.98385 | 13.37006 | 24035 ft | 339 kts | 245° |
| 2026-05-07 19:29 | 48.97304 | 13.33878 | 23796 ft | 338 kts | 245° |
| 2026-05-07 19:29 | 48.96212 | 13.30725 | 23545 ft | 335 kts | 245° |
| 2026-05-07 19:30 | 48.95124 | 13.27597 | 23261 ft | 334 kts | 245° |
| 2026-05-07 19:30 | 48.94040 | 13.24489 | 22967 ft | 333 kts | 245° |
| 2026-05-07 19:30 | 48.92965 | 13.21408 | 22614 ft | 327 kts | 245° |
| 2026-05-07 19:30 | 48.91901 | 13.18365 | 22212 ft | 323 kts | 245° |
| 2026-05-07 19:31 | 48.90852 | 13.15369 | 21796 ft | 320 kts | 245° |
| 2026-05-07 19:31 | 48.89811 | 13.12393 | 21402 ft | 317 kts | 245° |
| 2026-05-07 19:31 | 48.88779 | 13.09443 | 21009 ft | 315 kts | 245° |
| 2026-05-07 19:31 | 48.87755 | 13.06516 | 20619 ft | 312 kts | 244° |
| 2026-05-07 19:32 | 48.86738 | 13.03612 | 20227 ft | 310 kts | 244° |
| 2026-05-07 19:32 | 48.85727 | 13.00728 | 19850 ft | 309 kts | 244° |
| 2026-05-07 19:32 | 48.84720 | 12.97858 | 19463 ft | 307 kts | 244° |
| 2026-05-07 19:32 | 48.83717 | 12.95005 | 19079 ft | 306 kts | 244° |
| 2026-05-07 19:33 | 48.82721 | 12.92170 | 18704 ft | 304 kts | 244° |
| 2026-05-07 19:33 | 48.81726 | 12.89342 | 18322 ft | 303 kts | 244° |
| 2026-05-07 19:33 | 48.80734 | 12.86527 | 17914 ft | 301 kts | 244° |
| 2026-05-07 19:33 | 48.79747 | 12.83737 | 17540 ft | 298 kts | 244° |
| 2026-05-07 19:34 | 48.78770 | 12.80984 | 17188 ft | 296 kts | 244° |
| 2026-05-07 19:34 | 48.77800 | 12.78246 | 16872 ft | 294 kts | 244° |
| 2026-05-07 19:34 | 48.76835 | 12.75518 | 16481 ft | 293 kts | 244° |
| 2026-05-07 19:34 | 48.75876 | 12.72805 | 16129 ft | 291 kts | 244° |
| 2026-05-07 19:35 | 48.74924 | 12.70115 | 15780 ft | 289 kts | 244° |
| 2026-05-07 19:35 | 48.73974 | 12.67435 | 15445 ft | 288 kts | 244° |
| 2026-05-07 19:35 | 48.73027 | 12.64775 | 15101 ft | 286 kts | 244° |
| 2026-05-07 19:35 | 48.72083 | 12.62130 | 14775 ft | 285 kts | 243° |
| 2026-05-07 19:36 | 48.71143 | 12.59500 | 14439 ft | 283 kts | 243° |
| 2026-05-07 19:36 | 48.70209 | 12.56885 | 14098 ft | 282 kts | 243° |
| 2026-05-07 19:36 | 48.69275 | 12.54274 | 13746 ft | 283 kts | 243° |
| 2026-05-07 19:36 | 48.68332 | 12.51635 | 13231 ft | 286 kts | 243° |
| 2026-05-07 19:37 | 48.67382 | 12.48980 | 12720 ft | 288 kts | 243° |
| 2026-05-07 19:37 | 48.66402 | 12.46330 | 12226 ft | 290 kts | 238° |
| 2026-05-07 19:37 | 48.64961 | 12.44177 | 11569 ft | 296 kts | 217° |
| 2026-05-07 19:37 | 48.63227 | 12.42494 | 10891 ft | 296 kts | 215° |
| 2026-05-07 19:38 | 48.61476 | 12.40857 | 10194 ft | 296 kts | 214° |
| 2026-05-07 19:38 | 48.59723 | 12.39224 | 9416 ft | 295 kts | 214° |
| 2026-05-07 19:38 | 48.57981 | 12.37596 | 8606 ft | 293 kts | 214° |
| 2026-05-07 19:38 | 48.56256 | 12.35971 | 7809 ft | 291 kts | 214° |
| 2026-05-07 19:39 | 48.54547 | 12.34350 | 7038 ft | 289 kts | 214° |
| 2026-05-07 19:39 | 48.52859 | 12.32737 | 6254 ft | 287 kts | 214° |
| 2026-05-07 19:39 | 48.51184 | 12.31123 | 5450 ft | 285 kts | 214° |
| 2026-05-07 19:39 | 48.49558 | 12.29544 | 5095 ft | 268 kts | 214° |
| 2026-05-07 19:40 | 48.48009 | 12.28041 | 4898 ft | 264 kts | 214° |
| 2026-05-07 19:40 | 48.46478 | 12.26550 | 4466 ft | 261 kts | 214° |
| 2026-05-07 19:40 | 48.44957 | 12.25065 | 4076 ft | 261 kts | 214° |
| 2026-05-07 19:40 | 48.43440 | 12.23579 | 3996 ft | 260 kts | 214° |
| 2026-05-07 19:41 | 48.41923 | 12.22078 | 3994 ft | 261 kts | 214° |
| 2026-05-07 19:41 | 48.40410 | 12.20554 | 3998 ft | 262 kts | 216° |
| 2026-05-07 19:41 | 48.39215 | 12.18546 | 3999 ft | 260 kts | 247° |
| 2026-05-07 19:41 | 48.38986 | 12.15947 | 4001 ft | 244 kts | 275° |
| 2026-05-07 19:42 | 48.39039 | 12.13506 | 4003 ft | 225 kts | 266° |
| 2026-05-07 19:42 | 48.38880 | 12.11241 | 4001 ft | 210 kts | 264° |
| 2026-05-07 19:42 | 48.38715 | 12.09134 | 4000 ft | 196 kts | 264° |
| 2026-05-07 19:42 | 48.38565 | 12.07149 | 4002 ft | 188 kts | 264° |
| 2026-05-07 19:43 | 48.38422 | 12.05218 | 4004 ft | 185 kts | 264° |
| 2026-05-07 19:43 | 48.38282 | 12.03343 | 4041 ft | 173 kts | 264° |
| 2026-05-07 19:43 | 48.38153 | 12.01607 | 3962 ft | 162 kts | 264° |
| 2026-05-07 19:43 | 48.38029 | 11.99945 | 3809 ft | 158 kts | 264° |
| 2026-05-07 19:44 | 48.37908 | 11.98319 | 3627 ft | 154 kts | 264° |
| 2026-05-07 19:44 | 48.37797 | 11.96760 | 3421 ft | 147 kts | 264° |
| 2026-05-07 19:44 | 48.37686 | 11.95264 | 3197 ft | 142 kts | 264° |
| 2026-05-07 19:44 | 48.37578 | 11.93820 | 2985 ft | 136 kts | 266° |
| 2026-05-07 19:45 | 48.37478 | 11.92387 | 2799 ft | 140 kts | 266° |
| 2026-05-07 19:45 | 48.37366 | 11.90958 | 2620 ft | 135 kts | 266° |
| 2026-05-07 19:45 | 48.37257 | 11.89534 | 2440 ft | 138 kts | 266° |
| 2026-05-07 19:45 | 48.37145 | 11.88091 | 2254 ft | 140 kts | 266° |
| 2026-05-07 19:46 | 48.37035 | 11.86648 | 2053 ft | 136 kts | 265° |
| 2026-05-07 19:46 | 48.36924 | 11.85230 | 1897 ft | 138 kts | 265° |
| 2026-05-07 19:46 | 48.36814 | 11.83818 | 1733 ft | 137 kts | 266° |
| 2026-05-07 19:46 | 48.36707 | 11.82415 | 1553 ft | 134 kts | 266° |
| 2026-05-07 19:47 | 48.36613 | 11.81100 | 1486 ft | 113 kts | 265° |
| 2026-05-07 19:47 | 48.36537 | 11.80175 | 1473 ft | 63 kts | 263° |
| 2026-05-07 19:47 | 48.36485 | 11.79795 | 1482 ft | 30 kts | 244° |
| 2026-05-07 19:47 | 48.36377 | 11.79550 | 1485 ft | 24 kts | 236° |
| 2026-05-07 19:48 | 48.36301 | 11.79403 | 1485 ft | 14 kts | 233° |
| 2026-05-07 19:48 | 48.36244 | 11.79288 | 1481 ft | 9 kts | 229° |
| 2026-05-07 19:48 | 48.36187 | 11.79297 | 1483 ft | 10 kts | 166° |
| 2026-05-07 19:48 | 48.36145 | 11.79306 | 1482 ft | 4 kts | 174° |
| 2026-05-07 19:49 | 48.36097 | 11.79314 | 1483 ft | 9 kts | 173° |
| 2026-05-07 19:49 | 48.36033 | 11.79326 | 1482 ft | 10 kts | 173° |
| 2026-05-07 19:49 | 48.35995 | 11.79332 | 1483 ft | 2 kts | 173° |
| 2026-05-07 19:49 | 48.35975 | 11.79335 | 1486 ft | 4 kts | 174° |
| 2026-05-07 19:50 | 48.35966 | 11.79337 | 1482 ft | 2 kts | 174° |
| 2026-05-07 19:50 | 48.35927 | 11.79354 | 1474 ft | 9 kts | 155° |
| 2026-05-07 19:50 | 48.35873 | 11.79380 | 1476 ft | 8 kts | 171° |
| 2026-05-07 19:50 | 48.35815 | 11.79389 | 1476 ft | 9 kts | 174° |
| 2026-05-07 19:51 | 48.35752 | 11.79402 | 1479 ft | 7 kts | 172° |
| 2026-05-07 19:51 | 48.35703 | 11.79411 | 1482 ft | 7 kts | 174° |
| 2026-05-07 19:51 | 48.35670 | 11.79417 | 1486 ft | 0 kts | 173° |
| 2026-05-07 19:52 | 48.35664 | 11.79418 | 1474 ft | 4 kts | 172° |
| 2026-05-07 19:52 | 48.35613 | 11.79454 | 1476 ft | 12 kts | 147° |
| 2026-05-07 19:52 | 48.35537 | 11.79507 | 1479 ft | 13 kts | 169° |
| 2026-05-07 19:53 | 48.35444 | 11.79524 | 1476 ft | 13 kts | 173° |
| 2026-05-07 19:53 | 48.35352 | 11.79539 | 1473 ft | 13 kts | 173° |
| 2026-05-07 19:53 | 48.35287 | 11.79516 | 1477 ft | 8 kts | 232° |
| 2026-05-07 19:53 | 48.35278 | 11.79430 | 1486 ft | 9 kts | 263° |
| 2026-05-07 19:54 | 48.35271 | 11.79339 | 1473 ft | 4 kts | 263° |